createdAt,value
2022-09-24T00:01:28.592Z,73.87
2022-09-24T00:03:31.193Z,73.81
2022-09-24T00:05:40.006Z,73.84
2022-09-24T00:07:42.543Z,73.83
2022-09-24T00:09:45.089Z,74.07
2022-09-24T00:11:47.846Z,74.38
2022-09-24T00:13:52.256Z,74.35
2022-09-24T00:15:54.877Z,74.14
2022-09-24T00:17:58.008Z,74.27
2022-09-24T00:20:00.657Z,74.05
2022-09-24T00:22:07.484Z,74.27
2022-09-24T00:24:33.461Z,74.13
2022-09-24T00:26:50.641Z,74.60
2022-09-24T00:28:53.787Z,73.96
2022-09-24T00:30:58.384Z,73.86
2022-09-24T00:33:00.972Z,74.16
2022-09-24T00:35:03.589Z,74.51
2022-09-24T00:37:07.555Z,74.63
2022-09-24T00:39:10.153Z,74.44
2022-09-24T00:41:12.703Z,73.83
2022-09-24T00:43:26.523Z,74.00
2022-09-24T00:45:31.786Z,74.14
2022-09-24T00:47:37.056Z,74.14
2022-09-24T00:49:39.708Z,74.49
2022-09-24T00:51:43.638Z,74.38
2022-09-24T00:53:51.067Z,74.40
2022-09-24T00:55:55.594Z,74.02
2022-09-24T00:57:59.912Z,74.47
2022-09-24T01:00:02.820Z,74.51
2022-09-24T01:02:06.560Z,74.55
2022-09-24T01:04:10.171Z,74.60
2022-09-24T01:06:13.474Z,74.56
2022-09-24T01:08:18.741Z,74.10
2022-09-24T01:10:46.730Z,73.88
2022-09-24T01:12:58.978Z,74.12
2022-09-24T01:15:12.562Z,74.05
2022-09-24T01:17:28.646Z,74.03
2022-09-24T01:20:03.200Z,73.79
2022-09-24T01:22:15.610Z,73.81
2022-09-24T01:24:41.633Z,74.15
2022-09-24T01:27:07.588Z,74.13
2022-09-24T01:29:32.297Z,74.01
2022-09-24T01:31:41.775Z,74.31
2022-09-24T01:33:48.131Z,73.93
2022-09-24T01:35:54.869Z,73.58
2022-09-24T01:38:03.571Z,73.23
2022-09-24T01:40:10.674Z,73.75
2022-09-24T01:42:14.380Z,74.27
2022-09-24T01:44:18.472Z,74.06
2022-09-24T01:46:25.064Z,74.19
2022-09-24T01:48:27.854Z,74.12
2022-09-24T01:50:36.082Z,73.98
2022-09-24T01:52:45.362Z,73.48
2022-09-24T01:54:51.967Z,73.31
2022-09-24T01:57:00.610Z,73.75
2022-09-24T01:59:07.753Z,73.72
2022-09-24T02:01:15.876Z,73.75
2022-09-24T02:03:26.600Z,73.58
2022-09-24T02:05:35.369Z,74.00
2022-09-24T02:07:43.458Z,73.97
2022-09-24T02:09:46.222Z,73.81
2022-09-24T02:11:53.031Z,73.63
2022-09-24T02:14:00.653Z,73.91
2022-09-24T02:16:06.772Z,73.74
2022-09-24T02:18:12.583Z,73.73
2022-09-24T02:20:20.440Z,73.85
2022-09-24T02:22:24.969Z,74.31
2022-09-24T02:24:33.692Z,74.18
2022-09-24T02:26:36.286Z,74.17
2022-09-24T02:28:39.071Z,74.47
2022-09-24T02:30:47.324Z,74.29
2022-09-24T02:32:51.811Z,74.29
2022-09-24T02:34:57.863Z,74.44
2022-09-24T02:37:06.259Z,74.13
2022-09-24T02:39:09.007Z,74.54
2022-09-24T02:41:11.691Z,74.92
2022-09-24T02:43:14.245Z,75.24
2022-09-24T02:45:17.131Z,74.96
2022-09-24T02:47:20.031Z,74.42
2022-09-24T02:49:22.551Z,72.60
2022-09-24T02:51:25.454Z,72.59
2022-09-24T02:53:29.352Z,72.51
2022-09-24T02:55:31.923Z,73.70
2022-09-24T02:57:34.478Z,74.03
2022-09-24T02:59:37.083Z,74.38
2022-09-24T03:01:39.730Z,74.50
2022-09-24T03:03:42.378Z,74.65
2022-09-24T03:05:45.953Z,74.28
2022-09-24T03:07:48.525Z,72.50
2022-09-24T03:09:52.431Z,73.02
2022-09-24T03:11:56.060Z,73.68
2022-09-24T03:13:59.125Z,74.33
2022-09-24T03:16:02.090Z,74.18
2022-09-24T03:18:05.420Z,74.02
2022-09-24T03:20:08.864Z,74.31
2022-09-24T03:22:11.419Z,74.46
2022-09-24T03:24:13.988Z,74.47
2022-09-24T03:26:18.550Z,74.74
2022-09-24T03:28:21.426Z,74.40
2022-09-24T03:30:41.972Z,74.54
2022-09-24T03:32:44.525Z,74.90
2022-09-24T03:34:47.052Z,74.83
2022-09-24T03:36:49.641Z,75.01
2022-09-24T03:38:54.285Z,72.81
2022-09-24T03:40:57.124Z,74.01
2022-09-24T03:43:01.065Z,74.36
2022-09-24T03:45:03.713Z,74.46
2022-09-24T03:47:06.429Z,74.08
2022-09-24T03:49:09.025Z,74.41
2022-09-24T03:51:13.422Z,74.72
2022-09-24T03:53:16.712Z,74.90
2022-09-24T03:55:19.244Z,74.52
2022-09-24T03:57:21.769Z,74.79
2022-09-24T03:59:25.854Z,74.91
2022-09-24T04:01:29.054Z,74.85
2022-09-24T04:03:31.784Z,75.19
2022-09-24T04:05:34.809Z,75.11
2022-09-24T04:07:37.339Z,75.13
2022-09-24T04:09:39.884Z,73.78
2022-09-24T04:11:42.742Z,74.04
2022-09-24T04:13:45.658Z,74.40
2022-09-24T04:15:50.339Z,74.46
2022-09-24T04:17:53.783Z,74.67
2022-09-24T04:19:56.813Z,74.45
2022-09-24T04:21:59.815Z,74.93
2022-09-24T04:24:02.708Z,74.32
2022-09-24T04:26:05.304Z,74.01
2022-09-24T04:28:10.276Z,73.38
2022-09-24T04:30:14.710Z,73.45
2022-09-24T04:32:18.563Z,73.85
2022-09-24T04:34:21.863Z,74.41
2022-09-24T04:36:24.404Z,75.10
2022-09-24T04:38:26.964Z,75.46
2022-09-24T04:40:31.406Z,75.51
2022-09-24T04:42:34.081Z,75.61
2022-09-24T04:44:36.606Z,75.07
2022-09-24T04:46:40.250Z,75.10
2022-09-24T04:48:44.236Z,75.66
2022-09-24T04:50:46.750Z,75.67
2022-09-24T04:52:49.475Z,75.36
2022-09-24T04:54:52.047Z,74.97
2022-09-24T04:56:54.615Z,75.16
2022-09-24T04:58:57.470Z,75.29
2022-09-24T05:01:03.984Z,75.62
2022-09-24T05:03:06.566Z,75.79
2022-09-24T05:05:11.971Z,75.84
2022-09-24T05:07:14.668Z,75.73
2022-09-24T05:09:17.567Z,75.98
2022-09-24T05:11:20.450Z,75.91
2022-09-24T05:13:22.985Z,76.12
2022-09-24T05:15:25.625Z,75.50
2022-09-24T05:17:28.248Z,75.83
2022-09-24T05:19:30.793Z,76.12
2022-09-24T05:21:34.906Z,76.20
2022-09-24T05:23:37.456Z,76.44
2022-09-24T05:26:00.062Z,76.06
2022-09-24T05:28:01.846Z,76.51
2022-09-24T05:30:06.129Z,76.47
2022-09-24T05:32:10.541Z,76.69
2022-09-24T05:34:14.238Z,76.75
2022-09-24T05:36:16.831Z,76.76
2022-09-24T05:38:20.747Z,76.78
2022-09-24T05:40:41.148Z,76.62
2022-09-24T05:42:43.705Z,76.48
2022-09-24T05:44:51.331Z,77.14
2022-09-24T05:46:54.639Z,77.65
2022-09-24T05:48:57.563Z,77.44
2022-09-24T05:51:01.856Z,77.93
2022-09-24T05:53:05.381Z,77.79
2022-09-24T05:55:11.237Z,77.62
2022-09-24T05:57:15.572Z,78.05
2022-09-24T05:59:18.141Z,78.67
2022-09-24T06:01:20.815Z,78.58
2022-09-24T06:03:23.457Z,78.56
2022-09-24T06:05:26.113Z,78.58
2022-09-24T06:07:28.672Z,78.90
2022-09-24T06:09:31.270Z,78.98
2022-09-24T06:11:39.713Z,78.51
2022-09-24T06:13:42.920Z,78.87
2022-09-24T06:15:46.232Z,79.16
2022-09-24T06:17:48.903Z,79.10
2022-09-24T06:19:52.096Z,78.95
2022-09-24T06:21:54.988Z,79.41
2022-09-24T06:23:57.565Z,79.56
2022-09-24T06:26:00.154Z,79.64
2022-09-24T06:28:05.758Z,79.39
2022-09-24T06:30:09.766Z,79.46
2022-09-24T06:32:12.320Z,79.44
2022-09-24T06:34:15.507Z,79.18
2022-09-24T06:36:18.079Z,79.16
2022-09-24T06:38:21.207Z,79.36
2022-09-24T06:40:26.040Z,79.43
2022-09-24T06:42:28.744Z,79.47
2022-09-24T06:44:34.538Z,79.31
2022-09-24T06:46:37.118Z,78.59
2022-09-24T06:48:39.867Z,77.35
2022-09-24T06:50:44.269Z,77.90
2022-09-24T06:52:46.866Z,77.68
2022-09-24T06:54:49.407Z,76.58
2022-09-24T06:56:52.595Z,77.04
2022-09-24T06:58:55.841Z,76.81
2022-09-24T07:01:02.332Z,76.80
2022-09-24T07:03:05.605Z,77.24
2022-09-24T07:05:10.352Z,77.55
2022-09-24T07:07:32.780Z,78.28
2022-09-24T07:09:36.259Z,78.31
2022-09-24T07:11:39.514Z,78.72
2022-09-24T07:13:42.097Z,79.09
2022-09-24T07:15:45.817Z,79.12
2022-09-24T07:17:50.019Z,79.44
2022-09-24T07:19:52.729Z,79.57
2022-09-24T07:21:55.252Z,78.33
2022-09-24T07:23:58.688Z,78.69
2022-09-24T07:26:01.432Z,79.13
2022-09-24T07:28:05.399Z,79.05
2022-09-24T07:30:09.766Z,79.31
2022-09-24T07:32:12.384Z,79.28
2022-09-24T07:34:16.683Z,78.92
2022-09-24T07:36:19.229Z,79.24
2022-09-24T07:38:22.183Z,79.60
2022-09-24T07:40:26.779Z,79.70
2022-09-24T07:42:29.924Z,79.79
2022-09-24T07:44:32.507Z,80.07
2022-09-24T07:46:35.198Z,79.96
2022-09-24T07:48:37.759Z,79.93
2022-09-24T07:50:43.055Z,80.12
2022-09-24T07:52:51.188Z,80.32
2022-09-24T07:54:54.217Z,79.90
2022-09-24T07:56:56.843Z,79.99
2022-09-24T07:58:59.411Z,79.66
2022-09-24T08:01:02.276Z,80.09
2022-09-24T08:03:05.686Z,80.12
2022-09-24T08:05:09.093Z,80.45
2022-09-24T08:07:14.024Z,80.39
2022-09-24T08:09:17.014Z,79.64
2022-09-24T08:11:21.315Z,80.24
2022-09-24T08:13:27.503Z,81.08
2022-09-24T08:15:30.607Z,81.23
2022-09-24T08:17:33.233Z,81.67
2022-09-24T08:19:35.947Z,81.45
2022-09-24T08:21:39.631Z,81.34
2022-09-24T08:23:44.206Z,82.10
2022-09-24T08:25:46.741Z,82.76
2022-09-24T08:27:49.259Z,83.09
2022-09-24T08:29:51.825Z,83.54
2022-09-24T08:31:55.018Z,83.22
2022-09-24T08:33:58.358Z,83.16
2022-09-24T08:36:01.859Z,83.29
2022-09-24T08:38:04.472Z,83.07
2022-09-24T08:40:17.729Z,83.01
2022-09-24T08:42:31.780Z,83.51
2022-09-24T08:44:58.234Z,83.83
2022-09-24T08:47:22.519Z,84.18
2022-09-24T08:49:32.727Z,84.71
2022-09-24T08:51:45.352Z,84.97
2022-09-24T08:53:55.815Z,85.18
2022-09-24T08:56:02.060Z,85.45
2022-09-24T08:58:23.028Z,85.55
2022-09-24T09:00:25.727Z,86.17
2022-09-24T09:02:42.407Z,86.28
2022-09-24T09:04:59.982Z,86.66
2022-09-24T09:07:15.885Z,86.76
2022-09-24T09:09:21.256Z,87.13
2022-09-24T09:11:31.013Z,87.41
2022-09-24T09:13:41.323Z,87.59
2022-09-24T09:15:48.206Z,87.74
2022-09-24T09:17:54.096Z,87.27
2022-09-24T09:19:59.144Z,87.32
2022-09-24T09:22:07.425Z,87.27
2022-09-24T09:24:17.983Z,86.55
2022-09-24T09:26:21.414Z,86.86
2022-09-24T09:28:27.693Z,87.34
2022-09-24T09:30:39.051Z,87.48
2022-09-24T09:32:52.258Z,87.71
2022-09-24T09:35:04.083Z,87.96
2022-09-24T09:37:10.181Z,88.33
2022-09-24T09:39:28.335Z,88.20
2022-09-24T09:41:37.027Z,88.33
2022-09-24T09:43:42.597Z,87.88
2022-09-24T09:45:56.324Z,88.16
2022-09-24T09:47:59.758Z,86.29
2022-09-24T09:50:06.296Z,86.68
2022-09-24T09:52:15.895Z,86.91
2022-09-24T09:54:18.419Z,86.94
2022-09-24T09:56:25.677Z,87.06
2022-09-24T09:58:29.906Z,87.45
2022-09-24T10:00:36.510Z,87.56
2022-09-24T10:02:42.963Z,87.18
2022-09-24T10:04:45.941Z,87.59
2022-09-24T10:06:48.495Z,87.95
2022-09-24T10:08:51.114Z,88.35
2022-09-24T10:10:56.227Z,88.76
2022-09-24T10:13:09.702Z,89.23
2022-09-24T10:15:19.358Z,89.68
2022-09-24T10:17:25.118Z,90.09
2022-09-24T10:19:29.813Z,89.95
2022-09-24T10:21:35.295Z,90.23
2022-09-24T10:23:40.512Z,88.91
2022-09-24T10:25:52.119Z,89.07
2022-09-24T10:28:16.948Z,89.74
2022-09-24T10:30:33.765Z,89.67
2022-09-24T10:32:37.890Z,88.18
2022-09-24T10:34:40.546Z,88.60
2022-09-24T10:36:51.986Z,88.65
2022-09-24T10:39:04.534Z,89.14
2022-09-24T10:41:17.177Z,89.43
2022-09-24T10:43:21.156Z,88.94
2022-09-24T10:45:31.689Z,88.89
2022-09-24T10:47:48.276Z,89.06
2022-09-24T10:50:13.258Z,89.12
2022-09-24T10:52:34.386Z,89.11
2022-09-24T10:54:51.474Z,89.21
2022-09-24T10:56:57.676Z,89.54
2022-09-24T10:59:28.116Z,89.33
2022-09-24T11:01:43.713Z,88.52
2022-09-24T11:04:03.470Z,87.08
2022-09-24T11:06:18.272Z,86.73
2022-09-24T11:08:35.243Z,85.25
2022-09-24T11:10:54.928Z,83.82
2022-09-24T11:13:07.979Z,84.06
2022-09-24T11:15:23.352Z,84.31
2022-09-24T11:17:39.434Z,84.40
2022-09-24T11:19:58.576Z,85.50
2022-09-24T11:22:10.116Z,86.37
2022-09-24T11:24:46.259Z,86.61
2022-09-24T11:27:02.324Z,87.21
2022-09-24T11:29:20.082Z,87.78
2022-09-24T11:31:31.463Z,88.03
2022-09-24T11:33:52.212Z,87.76
2022-09-24T11:36:17.057Z,86.85
2022-09-24T11:38:29.558Z,86.37
2022-09-24T11:40:52.937Z,85.63
2022-09-24T11:43:08.310Z,85.45
2022-09-24T11:45:41.158Z,85.60
2022-09-24T11:48:04.823Z,86.16
2022-09-24T11:50:24.311Z,86.78
2022-09-24T11:52:35.175Z,86.97
2022-09-24T11:54:44.419Z,87.14
2022-09-24T11:56:53.361Z,87.07
2022-09-24T11:59:01.138Z,86.98
2022-09-24T12:01:07.096Z,87.10
2022-09-24T12:03:19.915Z,87.03
2022-09-24T12:05:34.627Z,86.48
2022-09-24T12:07:46.549Z,84.63
2022-09-24T12:09:54.519Z,84.02
2022-09-24T12:12:03.941Z,84.09
2022-09-24T12:14:15.079Z,82.35
2022-09-24T12:16:21.951Z,82.31
2022-09-24T12:18:28.253Z,82.59
2022-09-24T12:20:32.208Z,83.11
2022-09-24T12:22:38.586Z,83.63
2022-09-24T12:24:46.221Z,84.39
2022-09-24T12:26:50.347Z,84.74
2022-09-24T12:29:18.131Z,85.01
2022-09-24T12:31:46.561Z,85.36
2022-09-24T12:33:55.006Z,85.93
2022-09-24T12:36:05.471Z,86.55
2022-09-24T12:38:13.974Z,86.61
2022-09-24T12:40:36.285Z,86.79
2022-09-24T12:42:44.667Z,87.22
2022-09-24T12:44:51.837Z,87.43
2022-09-24T12:46:56.815Z,87.70
2022-09-24T12:49:00.149Z,88.09
2022-09-24T12:51:06.199Z,88.49
2022-09-24T12:53:24.786Z,88.41
2022-09-24T12:55:30.934Z,88.93
2022-09-24T12:57:36.834Z,89.33
2022-09-24T12:59:51.369Z,89.89
2022-09-24T13:01:54.312Z,90.13
2022-09-24T13:04:05.966Z,90.36
2022-09-24T13:06:23.888Z,90.60
2022-09-24T13:08:28.377Z,90.73
2022-09-24T13:10:34.507Z,90.99
2022-09-24T13:12:37.078Z,91.40
2022-09-24T13:14:42.854Z,91.82
2022-09-24T13:16:49.473Z,92.22
2022-09-24T13:18:55.224Z,92.24
2022-09-24T13:21:01.509Z,91.77
2022-09-24T13:23:16.489Z,91.54
2022-09-24T13:25:23.543Z,91.82
2022-09-24T13:27:38.172Z,91.80
2022-09-24T13:29:41.541Z,91.67
2022-09-24T13:31:48.975Z,89.48
2022-09-24T13:33:54.881Z,88.12
2022-09-24T13:36:13.456Z,87.12
2022-09-24T13:38:22.701Z,87.23
2022-09-24T13:40:29.226Z,87.43
2022-09-24T13:42:38.330Z,87.50
2022-09-24T13:44:45.218Z,87.45
2022-09-24T13:46:51.210Z,87.24
2022-09-24T13:48:56.931Z,84.42
2022-09-24T13:51:00.740Z,84.76
2022-09-24T13:53:07.476Z,84.11
2022-09-24T13:55:18.619Z,84.83
2022-09-24T13:57:24.261Z,85.47
2022-09-24T13:59:28.724Z,85.86
2022-09-24T14:01:39.031Z,86.03
2022-09-24T14:03:42.797Z,86.02
2022-09-24T14:05:45.579Z,86.61
2022-09-24T14:07:55.932Z,86.47
2022-09-24T14:10:07.163Z,85.44
2022-09-24T14:12:16.018Z,83.69
2022-09-24T14:14:21.141Z,83.67
2022-09-24T14:16:26.180Z,83.04
2022-09-24T14:18:29.877Z,83.47
2022-09-24T14:20:36.217Z,83.71
2022-09-24T14:22:42.848Z,84.48
2022-09-24T14:24:52.838Z,85.38
2022-09-24T14:26:59.246Z,86.36
2022-09-24T14:29:06.026Z,86.69
2022-09-24T14:31:10.244Z,86.75
2022-09-24T14:33:19.117Z,86.52
2022-09-24T14:35:30.002Z,85.07
2022-09-24T14:37:35.241Z,85.72
2022-09-24T14:39:42.229Z,86.41
2022-09-24T14:41:45.243Z,86.73
2022-09-24T14:43:51.689Z,87.15
2022-09-24T14:46:03.871Z,87.87
2022-09-24T14:48:18.278Z,88.26
2022-09-24T14:50:38.868Z,88.47
2022-09-24T14:52:41.817Z,88.38
2022-09-24T14:54:44.395Z,88.45
2022-09-24T14:56:46.975Z,88.42
2022-09-24T14:58:49.591Z,88.59
2022-09-24T15:00:56.492Z,88.75
2022-09-24T15:03:01.553Z,88.39
2022-09-24T15:05:08.049Z,88.25
2022-09-24T15:07:17.605Z,87.87
2022-09-24T15:09:28.352Z,87.44
2022-09-24T15:11:36.633Z,87.60
2022-09-24T15:13:39.269Z,87.46
2022-09-24T15:15:42.016Z,87.57
2022-09-24T15:17:47.587Z,87.76
2022-09-24T15:19:54.389Z,87.54
2022-09-24T15:21:58.769Z,87.25
2022-09-24T15:24:03.280Z,87.10
2022-09-24T15:26:05.966Z,87.59
2022-09-24T15:28:14.031Z,87.25
2022-09-24T15:30:20.634Z,86.98
2022-09-24T15:32:23.246Z,86.97
2022-09-24T15:34:26.049Z,87.02
2022-09-24T15:36:29.160Z,87.17
2022-09-24T15:38:32.140Z,85.83
2022-09-24T15:40:36.563Z,85.59
2022-09-24T15:42:39.151Z,85.63
2022-09-24T15:44:44.164Z,85.56
2022-09-24T15:46:48.131Z,85.58
2022-09-24T15:48:50.828Z,85.84
2022-09-24T15:50:53.884Z,85.93
2022-09-24T15:52:59.556Z,86.35
2022-09-24T15:55:03.791Z,86.63
2022-09-24T15:57:07.717Z,84.60
2022-09-24T15:59:13.544Z,84.59
2022-09-24T16:01:19.013Z,84.68
2022-09-24T16:03:24.422Z,84.75
2022-09-24T16:05:27.912Z,85.29
2022-09-24T16:07:30.486Z,85.76
2022-09-24T16:09:33.093Z,86.07
2022-09-24T16:11:35.942Z,86.23
2022-09-24T16:13:39.856Z,86.43
2022-09-24T16:15:43.130Z,86.73
2022-09-24T16:17:45.657Z,87.13
2022-09-24T16:19:48.190Z,87.46
2022-09-24T16:21:52.025Z,87.30
2022-09-24T16:23:55.621Z,85.86
2022-09-24T16:25:59.679Z,86.00
2022-09-24T16:28:02.724Z,86.55
2022-09-24T16:30:08.305Z,87.33
2022-09-24T16:32:11.395Z,87.84
2022-09-24T16:34:14.294Z,86.98
2022-09-24T16:36:16.990Z,87.28
2022-09-24T16:38:22.818Z,87.58
2022-09-24T16:40:25.990Z,87.97
2022-09-24T16:42:28.565Z,88.30
2022-09-24T16:44:31.114Z,88.57
2022-09-24T16:46:35.104Z,88.81
2022-09-24T16:48:37.942Z,89.13
2022-09-24T16:50:40.673Z,89.41
2022-09-24T16:52:44.780Z,89.48
2022-09-24T16:54:47.330Z,89.23
2022-09-24T16:56:50.868Z,89.33
2022-09-24T16:58:53.510Z,89.52
2022-09-24T17:00:56.202Z,89.64
2022-09-24T17:03:00.241Z,89.65
2022-09-24T17:05:03.583Z,89.68
2022-09-24T17:07:06.147Z,89.78
2022-09-24T17:09:26.587Z,89.79
2022-09-24T17:11:29.154Z,89.88
2022-09-24T17:13:31.681Z,89.89
2022-09-24T17:15:35.214Z,90.04
2022-09-24T17:17:45.715Z,89.98
2022-09-24T17:19:53.189Z,90.12
2022-09-24T17:21:55.743Z,89.92
2022-09-24T17:23:58.279Z,89.94
2022-09-24T17:26:04.515Z,89.97
2022-09-24T17:28:07.179Z,90.16
2022-09-24T17:30:11.168Z,89.77
2022-09-24T17:32:13.751Z,89.76
2022-09-24T17:34:16.324Z,89.77
2022-09-24T17:36:20.852Z,89.77
2022-09-24T17:38:23.742Z,89.42
2022-09-24T17:40:26.743Z,89.38
2022-09-24T17:42:31.626Z,88.67
2022-09-24T17:44:34.337Z,88.34
2022-09-24T17:46:37.087Z,88.55
2022-09-24T17:48:41.580Z,88.33
2022-09-24T17:50:44.145Z,88.86
2022-09-24T17:52:48.062Z,88.71
2022-09-24T17:54:50.612Z,88.67
2022-09-24T17:56:53.256Z,88.52
2022-09-24T17:58:56.784Z,88.17
2022-09-24T18:01:06.129Z,88.28
2022-09-24T18:03:08.786Z,88.46
2022-09-24T18:05:11.744Z,88.13
2022-09-24T18:07:14.377Z,88.31
2022-09-24T18:09:19.862Z,88.39
2022-09-24T18:11:24.696Z,88.58
2022-09-24T18:13:27.262Z,88.58
2022-09-24T18:15:31.090Z,88.57
2022-09-24T18:17:33.641Z,88.18
2022-09-24T18:19:36.314Z,88.43
2022-09-24T18:21:39.206Z,88.16
2022-09-24T18:23:43.213Z,88.14
2022-09-24T18:25:47.809Z,88.32
2022-09-24T18:27:50.845Z,88.15
2022-09-24T18:29:53.419Z,88.83
2022-09-24T18:31:55.945Z,88.56
2022-09-24T18:34:05.436Z,87.83
2022-09-24T18:36:10.189Z,87.14
2022-09-24T18:38:13.104Z,87.02
2022-09-24T18:40:15.797Z,87.20
2022-09-24T18:42:19.732Z,86.93
2022-09-24T18:44:22.597Z,86.86
2022-09-24T18:46:26.621Z,86.70
2022-09-24T18:48:29.283Z,86.61
2022-09-24T18:50:31.848Z,86.82
2022-09-24T18:52:34.648Z,86.90
2022-09-24T18:54:37.241Z,87.43
2022-09-24T18:56:40.614Z,87.73
2022-09-24T18:58:44.838Z,88.10
2022-09-24T19:00:54.792Z,88.05
2022-09-24T19:02:58.173Z,88.04
2022-09-24T19:05:00.816Z,87.91
2022-09-24T19:07:03.400Z,88.30
2022-09-24T19:09:07.040Z,88.46
2022-09-24T19:11:13.778Z,89.00
2022-09-24T19:13:17.065Z,89.35
2022-09-24T19:15:20.953Z,89.48
2022-09-24T19:17:23.842Z,89.21
2022-09-24T19:19:26.955Z,89.18
2022-09-24T19:21:30.799Z,89.27
2022-09-24T19:23:37.198Z,89.79
2022-09-24T19:25:41.879Z,90.02
2022-09-24T19:27:44.476Z,90.31
2022-09-24T19:29:47.064Z,90.53
2022-09-24T19:31:51.401Z,90.33
2022-09-24T19:33:54.709Z,90.75
2022-09-24T19:35:58.851Z,90.57
2022-09-24T19:38:01.869Z,90.43
2022-09-24T19:40:04.923Z,90.30
2022-09-24T19:42:08.138Z,90.25
2022-09-24T19:44:11.845Z,89.98
2022-09-24T19:46:16.941Z,89.91
2022-09-24T19:48:20.975Z,90.08
2022-09-24T19:50:24.564Z,90.55
2022-09-24T19:52:27.265Z,90.27
2022-09-24T19:54:30.089Z,90.23
2022-09-24T19:56:33.250Z,90.56
2022-09-24T19:58:36.649Z,90.37
2022-09-24T20:00:39.873Z,90.55
2022-09-24T20:02:43.284Z,90.51
2022-09-24T20:04:47.242Z,90.57
2022-09-24T20:06:49.841Z,88.13
2022-09-24T20:08:52.640Z,88.43
2022-09-24T20:10:55.207Z,88.59
2022-09-24T20:12:58.221Z,88.72
2022-09-24T20:15:00.901Z,89.44
2022-09-24T20:17:03.426Z,89.88
2022-09-24T20:19:05.987Z,90.36
2022-09-24T20:21:10.338Z,90.66
2022-09-24T20:23:13.083Z,90.26
2022-09-24T20:25:15.649Z,90.26
2022-09-24T20:27:36.110Z,90.08
2022-09-24T20:29:38.726Z,89.80
2022-09-24T20:31:42.120Z,90.10
2022-09-24T20:33:44.656Z,90.00
2022-09-24T20:35:47.719Z,89.96
2022-09-24T20:37:52.282Z,89.78
2022-09-24T20:39:55.161Z,90.07
2022-09-24T20:41:59.904Z,89.93
2022-09-24T20:44:03.671Z,89.54
2022-09-24T20:46:10.072Z,89.28
2022-09-24T20:48:12.875Z,89.12
2022-09-24T20:50:15.468Z,89.00
2022-09-24T20:52:18.147Z,88.76
2022-09-24T20:54:22.773Z,88.32
2022-09-24T20:56:26.099Z,88.00
2022-09-24T20:58:28.687Z,87.72
2022-09-24T21:00:35.816Z,87.35
2022-09-24T21:02:41.478Z,87.59
2022-09-24T21:04:44.335Z,87.18
2022-09-24T21:06:47.186Z,86.50
2022-09-24T21:08:51.242Z,85.99
2022-09-24T21:11:02.397Z,85.93
2022-09-24T21:13:04.993Z,85.99
2022-09-24T21:15:09.320Z,85.98
2022-09-24T21:17:12.067Z,86.33
2022-09-24T21:19:15.502Z,86.37
2022-09-24T21:21:19.816Z,86.47
2022-09-24T21:23:24.930Z,86.65
2022-09-24T21:25:52.782Z,86.54
2022-09-24T21:27:51.447Z,86.20
2022-09-24T21:29:54.032Z,85.60
2022-09-24T21:31:56.913Z,85.21
2022-09-24T21:33:59.837Z,85.67
2022-09-24T21:36:02.782Z,85.18
2022-09-24T21:38:05.476Z,85.14
2022-09-24T21:40:10.624Z,85.30
2022-09-24T21:42:14.142Z,84.91
2022-09-24T21:44:19.313Z,84.77
2022-09-24T21:46:22.858Z,84.74
2022-09-24T21:48:26.503Z,84.77
2022-09-24T21:50:30.926Z,84.53
2022-09-24T21:52:33.479Z,84.63
2022-09-24T21:54:36.635Z,84.78
2022-09-24T21:56:39.234Z,84.75
2022-09-24T21:58:41.750Z,85.01
2022-09-24T22:00:44.668Z,85.14
2022-09-24T22:02:47.314Z,85.49
2022-09-24T22:04:49.949Z,85.55
2022-09-24T22:06:52.572Z,85.69
2022-09-24T22:08:56.012Z,85.89
2022-09-24T22:11:03.640Z,85.39
2022-09-24T22:13:06.439Z,85.07
2022-09-24T22:15:10.379Z,84.72
2022-09-24T22:17:14.399Z,84.90
2022-09-24T22:19:17.142Z,84.99
2022-09-24T22:21:19.817Z,85.29
2022-09-24T22:23:23.037Z,84.87
2022-09-24T22:25:25.663Z,84.28
2022-09-24T22:27:28.251Z,84.26
2022-09-24T22:29:33.447Z,84.14
2022-09-24T22:31:36.016Z,84.21
2022-09-24T22:33:58.165Z,84.06
2022-09-24T22:36:01.100Z,84.19
2022-09-24T22:38:03.739Z,84.34
2022-09-24T22:40:07.303Z,84.19
2022-09-24T22:42:09.967Z,84.31
2022-09-24T22:44:13.055Z,84.58
2022-09-24T22:46:16.355Z,84.49
2022-09-24T22:48:18.984Z,84.48
2022-09-24T22:50:22.884Z,84.59
2022-09-24T22:52:25.406Z,84.83
2022-09-24T22:54:27.987Z,84.80
2022-09-24T22:56:30.887Z,85.12
2022-09-24T22:58:33.834Z,84.66
2022-09-24T23:00:36.578Z,84.26
2022-09-24T23:02:39.246Z,84.59
2022-09-24T23:04:42.094Z,84.43
2022-09-24T23:06:46.103Z,84.07
2022-09-24T23:08:49.596Z,84.74
2022-09-24T23:10:52.157Z,84.33
2022-09-24T23:12:54.722Z,84.29
2022-09-24T23:14:58.113Z,84.25
2022-09-24T23:17:00.845Z,83.90
2022-09-24T23:19:06.739Z,82.97
2022-09-24T23:21:12.349Z,82.69
2022-09-24T23:23:16.420Z,83.04
2022-09-24T23:25:18.966Z,82.92
2022-09-24T23:27:22.367Z,82.58
2022-09-24T23:29:25.438Z,82.67
2022-09-24T23:31:30.617Z,82.64
2022-09-24T23:33:34.234Z,82.66
2022-09-24T23:35:36.767Z,82.40
2022-09-24T23:37:39.526Z,82.18
2022-09-24T23:39:43.431Z,82.05
2022-09-24T23:41:46.187Z,82.63
2022-09-24T23:43:48.806Z,82.50
2022-09-24T23:45:51.549Z,82.27
2022-09-24T23:47:54.143Z,82.38
2022-09-24T23:49:56.683Z,82.45
2022-09-24T23:51:59.318Z,82.33
2022-09-24T23:54:01.924Z,82.26
2022-09-24T23:56:08.338Z,81.83
2022-09-24T23:58:11.448Z,81.91
